Time;durP1;ratioP1;P1;durP2;ratioP2;P2;SDS_P1;SDS_P2;PMS_P1;PMS_P2;Temp;Humidity;BMP_temperature;BMP_pressure;BME280_temperature;BME280_humidity;BME280_pressure;Samples;Min_cycle;Max_cycle;Signal;HPM_P1;HPM_P2
2021/07/12 00:02:08;;;;;;;5.40;3.55;;;17.10;78.50;;;;;;5028211;28;20049;-83
2021/07/12 00:04:35;;;;;;;9.02;4.28;;;17.10;78.50;;;;;;5028179;28;20076;-84
2021/07/12 00:07:02;;;;;;;5.90;4.10;;;17.10;78.50;;;;;;5013174;28;20132;-85
2021/07/12 00:09:29;;;;;;;6.22;4.10;;;17.10;78.50;;;;;;5028441;28;20050;-84
2021/07/12 00:11:57;;;;;;;5.93;4.35;;;17.10;78.60;;;;;;5028065;28;20050;-85
2021/07/12 00:14:24;;;;;;;6.13;4.18;;;17.10;78.70;;;;;;5012717;28;20042;-84
2021/07/12 00:16:51;;;;;;;6.20;4.07;;;17.10;78.70;;;;;;5028322;28;20483;-85
2021/07/12 00:19:18;;;;;;;8.20;4.00;;;17.10;78.70;;;;;;5028248;28;20428;-84
2021/07/12 00:21:46;;;;;;;7.07;3.85;;;17.00;78.80;;;;;;5028353;28;20054;-85
2021/07/12 00:24:13;;;;;;;9.75;4.13;;;17.10;78.90;;;;;;5028091;28;20046;-84
2021/07/12 00:26:40;;;;;;;13.07;4.53;;;17.10;79.00;;;;;;5029192;28;20056;-85
2021/07/12 00:29:08;;;;;;;5.35;4.00;;;17.10;79.00;;;;;;5016181;28;20053;-86
2021/07/12 00:31:35;;;;;;;9.13;5.00;;;17.10;79.00;;;;;;5032247;28;20050;-85
2021/07/12 00:34:02;;;;;;;9.18;4.40;;;17.00;79.00;;;;;;5031850;28;20057;-84
2021/07/12 00:36:29;;;;;;;8.13;3.92;;;17.10;79.10;;;;;;5031739;28;20049;-84
2021/07/12 00:38:56;;;;;;;7.43;4.43;;;17.00;79.20;;;;;;5031625;28;20428;-86
2021/07/12 00:41:23;;;;;;;11.07;4.55;;;17.00;79.20;;;;;;5016322;28;20068;-84
2021/07/12 00:43:51;;;;;;;6.35;4.65;;;17.00;79.30;;;;;;5016320;28;20131;-86
2021/07/12 00:46:18;;;;;;;10.38;4.88;;;17.10;79.30;;;;;;5016171;28;20061;-85
2021/07/12 00:48:45;;;;;;;14.88;5.60;;;17.00;79.30;;;;;;5031133;28;20054;-85
2021/07/12 00:51:13;;;;;;;8.55;5.22;;;17.10;79.30;;;;;;5015042;28;20046;-85
2021/07/12 00:53:40;;;;;;;11.15;6.00;;;17.10;79.40;;;;;;5015461;28;20076;-84
2021/07/12 00:56:08;;;;;;;10.63;5.85;;;17.10;79.40;;;;;;5014964;28;20056;-84
2021/07/12 00:58:36;;;;;;;8.55;5.40;;;17.10;79.40;;;;;;5015924;28;20419;-83
2021/07/12 01:01:05;;;;;;;14.63;5.60;;;17.10;79.50;;;;;;5014999;28;20046;-87
2021/07/12 01:03:33;;;;;;;9.60;6.18;;;17.10;79.50;;;;;;5014920;28;20133;-83
2021/07/12 01:06:00;;;;;;;10.80;6.10;;;17.10;79.60;;;;;;5031143;28;20084;-86
2021/07/12 01:08:27;;;;;;;10.57;6.15;;;17.10;79.70;;;;;;5031389;28;20057;-84
2021/07/12 01:11:18;;;;;;;12.50;6.38;;;17.10;79.70;;;;;;5031249;28;20053;-84
2021/07/12 01:14:04;;;;;;;10.68;5.75;;;17.10;79.70;;;;;;5030812;28;20056;-86
2021/07/12 01:16:53;;;;;;;10.35;6.50;;;17.10;79.80;;;;;;5030952;28;20045;-83
2021/07/12 01:19:29;;;;;;;8.57;5.80;;;17.10;79.90;;;;;;5031145;28;20056;-84
2021/07/12 01:22:45;;;;;;;10.55;5.88;;;17.10;79.90;;;;;;5031115;28;20052;-84
2021/07/12 01:25:32;;;;;;;12.90;6.35;;;17.20;80.00;;;;;;5031013;28;20060;-84
2021/07/12 01:28:36;;;;;;;9.05;6.22;;;17.10;80.00;;;;;;5014357;28;20057;-85
2021/07/12 01:31:41;;;;;;;11.32;6.07;;;17.20;80.10;;;;;;5015726;28;20400;-85
2021/07/12 01:34:17;;;;;;;13.38;6.57;;;17.10;80.10;;;;;;5030834;28;20108;-85
2021/07/12 01:36:58;;;;;;;9.15;6.22;;;17.20;80.10;;;;;;5030478;28;20423;-84
2021/07/12 01:39:51;;;;;;;9.50;6.45;;;17.20;80.10;;;;;;5030928;28;20065;-84
2021/07/12 01:42:24;;;;;;;9.68;6.15;;;17.20;80.20;;;;;;5030368;28;20050;-84
2021/07/12 01:45:01;;;;;;;8.73;6.97;;;17.20;80.20;;;;;;5030375;28;20050;-86
2021/07/12 01:47:39;;;;;;;8.73;7.20;;;17.20;80.20;;;;;;5030316;28;20058;-84
2021/07/12 01:50:13;;;;;;;8.35;6.70;;;17.20;80.20;;;;;;5030320;28;20050;-85
2021/07/12 01:53:02;;;;;;;9.55;6.15;;;17.20;80.20;;;;;;5013993;28;20492;-85
2021/07/12 01:55:53;;;;;;;8.65;6.75;;;17.30;80.10;;;;;;5030596;28;20050;-84
2021/07/12 01:58:31;;;;;;;7.93;6.57;;;17.20;80.10;;;;;;5013889;28;20451;-84
2021/07/12 02:00:59;;;;;;;8.38;6.63;;;17.20;80.10;;;;;;5013681;28;20052;-83
2021/07/12 02:03:29;;;;;;;8.38;6.57;;;17.20;80.00;;;;;;5013735;28;20050;-84
2021/07/12 02:05:59;;;;;;;9.88;6.45;;;17.20;80.00;;;;;;5030300;28;20052;-85
2021/07/12 02:08:27;;;;;;;12.45;7.95;;;17.20;80.00;;;;;;5029999;28;20092;-83
2021/07/12 02:10:57;;;;;;;8.73;6.90;;;17.20;79.90;;;;;;5013804;28;20064;-83
2021/07/12 02:13:24;;;;;;;9.27;7.45;;;17.20;79.80;;;;;;5030008;28;20045;-84
2021/07/12 02:15:58;;;;;;;11.13;7.05;;;17.20;79.80;;;;;;5029880;28;20424;-84
2021/07/12 02:18:27;;;;;;;9.50;6.70;;;17.20;79.70;;;;;;5029841;28;20072;-84
2021/07/12 02:20:55;;;;;;;11.93;6.72;;;17.20;79.70;;;;;;5029829;28;20050;-83
2021/07/12 02:23:24;;;;;;;11.20;6.68;;;17.20;79.80;;;;;;5029712;28;20053;-83
2021/07/12 02:25:53;;;;;;;12.13;7.63;;;17.20;79.80;;;;;;5029625;28;20096;-83
2021/07/12 02:28:21;;;;;;;12.38;8.00;;;17.20;79.90;;;;;;5014790;28;20065;-84
2021/07/12 02:30:49;;;;;;;11.13;7.68;;;17.20;79.90;;;;;;5029587;28;20430;-85
2021/07/12 02:33:17;;;;;;;16.23;8.07;;;17.20;79.90;;;;;;5029756;28;20064;-84
2021/07/12 02:35:45;;;;;;;12.23;7.90;;;17.20;80.00;;;;;;5029534;28;20054;-82
2021/07/12 02:38:13;;;;;;;13.75;7.68;;;17.20;80.00;;;;;;5029348;28;20064;-85
2021/07/12 02:40:41;;;;;;;10.80;8.20;;;17.20;80.00;;;;;;5029411;28;20050;-83
2021/07/12 02:43:09;;;;;;;15.73;8.40;;;17.20;80.00;;;;;;5029738;28;20049;-84
2021/07/12 02:45:37;;;;;;;14.70;8.45;;;17.20;80.00;;;;;;5029096;28;20511;-85
2021/07/12 02:48:05;;;;;;;9.75;7.45;;;17.20;80.00;;;;;;5012871;28;20061;-86
2021/07/12 02:50:33;;;;;;;13.93;8.32;;;17.20;80.00;;;;;;5016687;28;20495;-84
2021/07/12 02:53:24;;;;;;;15.48;7.65;;;17.20;80.00;;;;;;5013270;28;20058;-84
2021/07/12 02:55:51;;;;;;;16.77;7.82;;;17.20;80.10;;;;;;5014041;28;20065;-84
2021/07/12 02:58:18;;;;;;;21.15;7.40;;;17.20;80.00;;;;;;5029208;28;20046;-83
2021/07/12 03:00:45;;;;;;;12.18;7.40;;;17.20;80.10;;;;;;5012752;28;20045;-84
2021/07/12 03:03:13;;;;;;;16.08;6.93;;;17.20;80.10;;;;;;5012813;28;20057;-83
2021/07/12 03:05:40;;;;;;;13.68;7.13;;;17.20;80.10;;;;;;5029445;28;20411;-85
2021/07/12 03:08:14;;;;;;;12.05;7.10;;;17.20;80.10;;;;;;5012636;28;20407;-85
2021/07/12 03:10:59;;;;;;;19.52;6.60;;;17.20;80.10;;;;;;5028907;28;20526;-83
2021/07/12 03:13:41;;;;;;;10.30;6.82;;;17.20;80.10;;;;;;5029096;28;20427;-85
2021/07/12 03:16:09;;;;;;;11.07;6.35;;;17.20;80.10;;;;;;5028692;28;20056;-85
2021/07/12 03:18:59;;;;;;;13.63;6.50;;;17.20;80.10;;;;;;5028772;28;20137;-85
2021/07/12 03:21:27;;;;;;;10.38;5.97;;;17.20;80.10;;;;;;5012529;28;20050;-83
2021/07/12 03:23:58;;;;;;;9.48;6.15;;;17.20;80.10;;;;;;5028706;28;20050;-83
2021/07/12 03:26:26;;;;;;;9.55;6.68;;;17.10;80.00;;;;;;5028902;28;20053;-84
2021/07/12 03:28:55;;;;;;;12.15;6.53;;;17.20;80.00;;;;;;5028635;28;20423;-84
2021/07/12 03:31:29;;;;;;;16.50;6.93;;;17.20;80.00;;;;;;5028847;28;20064;-85
2021/07/12 03:33:59;;;;;;;11.43;7.13;;;17.10;80.00;;;;;;5028497;28;20148;-85
2021/07/12 03:36:30;;;;;;;11.07;6.63;;;17.10;80.00;;;;;;5028727;28;20526;-84
2021/07/12 03:38:57;;;;;;;10.40;6.00;;;17.10;80.10;;;;;;5028306;28;20502;-85
2021/07/12 03:41:24;;;;;;;11.55;6.07;;;17.10;80.10;;;;;;5013403;28;20047;-84
2021/07/12 03:43:52;;;;;;;13.70;6.00;;;17.00;80.10;;;;;;5012341;28;20132;-84
2021/07/12 03:46:19;;;;;;;9.70;5.93;;;17.10;80.10;;;;;;5028409;28;20499;-84
2021/07/12 03:48:47;;;;;;;12.90;6.22;;;17.00;80.10;;;;;;5013033;28;20053;-84
2021/07/12 03:51:20;;;;;;;10.77;6.00;;;17.00;80.10;;;;;;5011563;28;20045;-83
2021/07/12 03:53:47;;;;;;;12.00;6.63;;;17.00;80.10;;;;;;5012436;28;20064;-84
2021/07/12 03:56:15;;;;;;;10.50;6.22;;;17.00;80.30;;;;;;5012376;28;20137;-85
2021/07/12 03:58:42;;;;;;;8.07;6.30;;;17.00;80.30;;;;;;5011778;28;20427;-84
2021/07/12 04:01:09;;;;;;;9.93;6.32;;;17.00;80.40;;;;;;5030290;28;20124;-84
2021/07/12 04:03:36;;;;;;;11.48;6.47;;;17.00;80.40;;;;;;5015984;28;20408;-84
2021/07/12 04:06:07;;;;;;;9.63;6.53;;;17.00;80.50;;;;;;5017148;28;20053;-85
2021/07/12 04:08:34;;;;;;;13.38;6.38;;;17.00;80.50;;;;;;5032329;28;20054;-85
2021/07/12 04:11:01;;;;;;;13.70;6.88;;;17.00;80.50;;;;;;5032268;28;20045;-83
2021/07/12 04:13:28;;;;;;;8.93;5.80;;;17.00;80.50;;;;;;5016874;28;20049;-85
2021/07/12 04:15:55;;;;;;;10.98;6.90;;;17.00;80.50;;;;;;5016979;28;20400;-85
2021/07/12 04:18:22;;;;;;;9.50;5.78;;;17.00;80.50;;;;;;5032163;28;20087;-83
2021/07/12 04:20:49;;;;;;;8.88;5.80;;;17.00;80.50;;;;;;5031601;28;20057;-85
2021/07/12 04:23:16;;;;;;;11.18;6.15;;;17.00;80.60;;;;;;5032040;28;20053;-85
2021/07/12 04:25:43;;;;;;;9.32;5.68;;;17.00;80.60;;;;;;5031851;28;20052;-85
2021/07/12 04:28:10;;;;;;;10.20;5.43;;;17.00;80.60;;;;;;5031913;28;20081;-84
2021/07/12 04:30:37;;;;;;;8.77;5.22;;;17.00;80.60;;;;;;5017042;28;20090;-83
2021/07/12 04:33:05;;;;;;;8.25;5.57;;;17.00;80.60;;;;;;5016871;28;20060;-83
2021/07/12 04:35:32;;;;;;;10.07;5.40;;;17.00;80.60;;;;;;5015488;28;20061;-84
2021/07/12 04:37:59;;;;;;;10.27;5.53;;;17.00;80.60;;;;;;5031596;28;20050;-85
2021/07/12 04:40:26;;;;;;;10.93;5.32;;;17.00;80.60;;;;;;5032150;28;20056;-85
2021/07/12 04:42:54;;;;;;;7.55;5.85;;;16.90;80.70;;;;;;5031607;28;20411;-84
2021/07/12 04:45:22;;;;;;;8.80;5.75;;;16.90;80.70;;;;;;5016411;28;20076;-84
2021/07/12 04:47:49;;;;;;;13.65;5.53;;;16.90;80.80;;;;;;5031270;28;20058;-84
2021/07/12 04:50:17;;;;;;;8.35;5.28;;;17.00;80.80;;;;;;5031266;28;20077;-84
2021/07/12 04:52:44;;;;;;;8.57;5.15;;;17.00;80.90;;;;;;5014882;28;20052;-83
2021/07/12 04:55:12;;;;;;;10.90;5.35;;;16.90;80.90;;;;;;5014957;28;20054;-85
2021/07/12 04:57:39;;;;;;;8.80;4.68;;;17.00;81.00;;;;;;5016201;28;20050;-85
2021/07/12 05:00:08;;;;;;;10.13;4.88;;;16.90;81.10;;;;;;5031393;28;20050;-84
2021/07/12 05:02:35;;;;;;;13.00;5.15;;;16.90;81.10;;;;;;5015115;28;20087;-83
2021/07/12 05:05:02;;;;;;;10.18;5.20;;;16.90;81.10;;;;;;5015751;28;20406;-84
2021/07/12 05:07:29;;;;;;;8.80;5.72;;;17.00;81.20;;;;;;5015986;28;20404;-84
2021/07/12 05:09:56;;;;;;;13.07;5.57;;;17.00;81.20;;;;;;5016123;28;20054;-82
2021/07/12 05:12:23;;;;;;;12.93;6.00;;;17.00;81.20;;;;;;5030314;28;20491;-83
2021/07/12 05:14:50;;;;;;;10.05;5.63;;;17.00;81.20;;;;;;5030990;28;20052;-85
2021/07/12 05:17:18;;;;;;;9.05;6.10;;;17.00;81.30;;;;;;5030928;28;20060;-84
2021/07/12 05:19:45;;;;;;;13.95;5.85;;;17.00;81.40;;;;;;5030685;28;20046;-82
2021/07/12 05:22:12;;;;;;;9.00;5.28;;;17.00;81.40;;;;;;5031068;28;20052;-84
2021/07/12 05:24:39;;;;;;;11.00;6.22;;;17.00;81.50;;;;;;5031172;28;20050;-85
2021/07/12 05:27:06;;;;;;;9.18;5.32;;;17.10;81.60;;;;;;5015873;28;20058;-84
2021/07/12 05:29:33;;;;;;;10.80;5.90;;;17.10;81.60;;;;;;5014329;28;20049;-85
2021/07/12 05:32:01;;;;;;;7.63;6.10;;;17.10;81.70;;;;;;5030631;28;20048;-85
2021/07/12 05:34:28;;;;;;;13.27;6.85;;;17.10;81.60;;;;;;5030682;28;20056;-83
2021/07/12 05:36:55;;;;;;;11.38;6.05;;;17.20;81.60;;;;;;5030501;28;20106;-85
2021/07/12 05:39:22;;;;;;;11.40;6.60;;;17.20;81.60;;;;;;5030483;28;20060;-84
2021/07/12 05:41:49;;;;;;;7.57;6.13;;;17.20;81.50;;;;;;5015782;28;20107;-86
2021/07/12 05:44:16;;;;;;;8.15;6.05;;;17.20;81.50;;;;;;5030926;28;20133;-87
2021/07/12 05:46:43;;;;;;;12.90;6.68;;;17.20;81.40;;;;;;5030340;28;20507;-85
2021/07/12 05:49:11;;;;;;;11.05;6.45;;;17.20;81.40;;;;;;5030197;28;20050;-87
2021/07/12 05:51:38;;;;;;;10.82;6.18;;;17.30;81.30;;;;;;5013392;28;20046;-85
2021/07/12 05:54:06;;;;;;;12.70;6.43;;;17.20;81.30;;;;;;4997246;28;20515;-84
2021/07/12 05:56:33;;;;;;;12.57;5.68;;;17.30;81.30;;;;;;5027596;28;20046;-86
2021/07/12 05:59:01;;;;;;;12.05;6.32;;;17.30;81.30;;;;;;5028971;28;20057;-86
2021/07/12 06:01:48;;;;;;;10.85;6.32;;;17.30;81.30;;;;;;5012615;28;20583;-88
2021/07/12 06:04:15;;;;;;;13.05;6.38;;;17.30;81.30;;;;;;5012512;28;20065;-86
2021/07/12 06:06:42;;;;;;;9.82;6.05;;;17.40;81.30;;;;;;5030386;28;20053;-86
2021/07/12 06:09:09;;;;;;;12.70;6.45;;;17.40;81.30;;;;;;5032423;28;20136;-87
2021/07/12 06:11:39;;;;;;;11.02;6.35;;;17.40;81.40;;;;;;5026148;28;20050;-87
2021/07/12 06:14:06;;;;;;;11.48;6.20;;;17.40;81.40;;;;;;5029072;28;20060;-87
2021/07/12 06:16:33;;;;;;;9.57;6.15;;;17.40;81.40;;;;;;5028328;28;20089;-86
2021/07/12 06:19:05;;;;;;;14.50;6.47;;;17.40;81.30;;;;;;5012456;28;20042;-86
2021/07/12 06:21:32;;;;;;;10.80;6.30;;;17.40;81.30;;;;;;5029091;28;20074;-85
2021/07/12 06:23:59;;;;;;;10.60;6.30;;;17.40;81.30;;;;;;5028407;28;20121;-85
2021/07/12 06:26:26;;;;;;;11.23;6.78;;;17.40;81.30;;;;;;5028916;28;20499;-84
2021/07/12 06:28:53;;;;;;;8.60;5.30;;;17.40;81.30;;;;;;5028897;28;20064;-86
2021/07/12 06:31:20;;;;;;;10.32;5.40;;;17.40;81.40;;;;;;5028198;28;20060;-85
2021/07/12 06:33:48;;;;;;;10.60;5.90;;;17.40;81.40;;;;;;5028875;28;20049;-87
2021/07/12 06:36:15;;;;;;;9.15;5.15;;;17.40;81.40;;;;;;5028407;28;20046;-86
2021/07/12 06:38:42;;;;;;;8.25;5.35;;;17.40;81.50;;;;;;5028214;28;20539;-86
2021/07/12 06:41:10;;;;;;;9.90;5.30;;;17.50;81.50;;;;;;5028724;28;20053;-84
2021/07/12 06:43:37;;;;;;;11.63;4.90;;;17.50;81.50;;;;;;5028382;28;20541;-87
2021/07/12 06:46:04;;;;;;;9.20;4.53;;;17.50;81.60;;;;;;5027695;28;20466;-84
2021/07/12 06:48:31;;;;;;;9.90;4.63;;;17.50;81.60;;;;;;5012776;28;20411;-86
2021/07/12 06:50:58;;;;;;;8.82;4.10;;;17.50;81.60;;;;;;5011560;28;20156;-88
2021/07/12 06:53:34;;;;;;;18.50;4.80;;;17.60;81.60;;;;;;5012891;28;20057;-86
2021/07/12 06:56:04;;;;;;;8.65;4.63;;;17.60;81.60;;;;;;5008546;28;20046;-85
2021/07/12 06:58:31;;;;;;;8.50;4.50;;;17.60;81.60;;;;;;4973169;28;20051;-86
2021/07/12 07:00:59;;;;;;;11.60;4.40;;;17.70;81.70;;;;;;4972738;28;20047;-85
2021/07/12 07:03:26;;;;;;;10.32;4.18;;;17.70;81.60;;;;;;4982212;28;20061;-87
2021/07/12 07:05:53;;;;;;;9.77;4.00;;;17.70;81.60;;;;;;5008454;28;20062;-87
2021/07/12 07:08:20;;;;;;;6.85;3.83;;;17.80;81.50;;;;;;4993151;28;20142;-87
2021/07/12 07:10:48;;;;;;;16.05;3.35;;;17.80;81.50;;;;;;5008007;28;20046;-85
2021/07/12 07:13:15;;;;;;;7.40;3.63;;;17.90;81.50;;;;;;5008419;28;20078;-87
2021/07/12 07:15:44;;;;;;;6.72;3.47;;;17.90;81.40;;;;;;5007542;28;20480;-85
2021/07/12 07:18:11;;;;;;;16.15;3.80;;;17.90;81.40;;;;;;5008182;28;20056;-85
2021/07/12 07:20:38;;;;;;;5.60;2.92;;;17.90;81.40;;;;;;5008169;28;20058;-85
2021/07/12 07:23:05;;;;;;;7.28;3.40;;;17.90;81.30;;;;;;5007712;28;20133;-85
2021/07/12 07:25:35;;;;;;;11.07;3.97;;;18.00;81.20;;;;;;5008201;28;20587;-86
2021/07/12 07:28:03;;;;;;;8.93;3.10;;;18.10;81.10;;;;;;5007911;28;20515;-86
2021/07/12 07:30:30;;;;;;;5.38;3.33;;;18.10;81.10;;;;;;5008061;28;20133;-85
2021/07/12 07:32:58;;;;;;;6.93;3.40;;;18.20;81.10;;;;;;5007999;28;20089;-83
2021/07/12 07:35:26;;;;;;;6.82;3.17;;;18.20;81.10;;;;;;4992267;28;20516;-85
2021/07/12 07:37:53;;;;;;;7.45;2.90;;;18.20;81.00;;;;;;5008659;28;20057;-85
2021/07/12 07:40:21;;;;;;;5.40;2.85;;;18.30;80.80;;;;;;5008747;28;20085;-87
2021/07/12 07:42:48;;;;;;;7.18;2.90;;;18.30;80.70;;;;;;5008540;28;20078;-86
2021/07/12 07:45:16;;;;;;;9.77;3.20;;;18.40;80.50;;;;;;5008485;28;20462;-84
2021/07/12 07:47:45;;;;;;;8.13;3.08;;;18.40;80.50;;;;;;5008537;28;20068;-84
2021/07/12 07:50:21;;;;;;;5.72;2.78;;;18.40;80.40;;;;;;5007563;28;20101;-85
2021/07/12 07:52:49;;;;;;;5.38;2.45;;;18.40;80.30;;;;;;5009823;28;20045;-85
2021/07/12 07:55:17;;;;;;;7.97;2.97;;;18.40;80.20;;;;;;5010056;28;20575;-86
2021/07/12 07:57:44;;;;;;;7.28;2.65;;;18.40;80.30;;;;;;5008540;28;20389;-84
2021/07/12 08:00:14;;;;;;;8.02;2.45;;;18.50;80.30;;;;;;5008982;28;20050;-88
2021/07/12 08:02:42;;;;;;;12.57;2.70;;;18.50;80.20;;;;;;5008595;28;20054;-86
2021/07/12 08:05:09;;;;;;;4.47;2.55;;;18.60;80.20;;;;;;5008518;28;20073;-83
2021/07/12 08:07:38;;;;;;;6.10;2.63;;;18.60;80.00;;;;;;5008273;28;20061;-86
2021/07/12 08:10:08;;;;;;;5.93;2.63;;;18.70;79.90;;;;;;4993669;28;20492;-86
2021/07/12 08:12:35;;;;;;;7.60;2.72;;;18.70;79.70;;;;;;4993518;28;20050;-88
2021/07/12 08:15:05;;;;;;;7.43;2.47;;;18.70;79.50;;;;;;5008641;28;20069;-86
2021/07/12 08:17:32;;;;;;;6.30;2.45;;;18.70;79.40;;;;;;5008566;28;20057;-86
2021/07/12 08:19:59;;;;;;;5.15;2.10;;;18.70;79.40;;;;;;5008194;28;20057;-84
2021/07/12 08:22:45;;;;;;;5.82;2.47;;;18.80;79.30;;;;;;5006509;28;20508;-86
2021/07/12 08:25:13;;;;;;;6.57;2.38;;;18.80;79.30;;;;;;5008601;28;20068;-87
2021/07/12 08:27:40;;;;;;;3.90;2.08;;;18.80;79.30;;;;;;4993241;28;20467;-89
2021/07/12 08:30:09;;;;;;;6.10;1.90;;;18.90;79.30;;;;;;5008413;28;20074;-89
2021/07/12 08:32:37;;;;;;;7.47;2.20;;;18.90;79.40;;;;;;5008153;28;20046;-88
2021/07/12 08:35:05;;;;;;;5.28;2.03;;;18.90;79.30;;;;;;4993102;28;20055;-87
2021/07/12 08:37:33;;;;;;;8.40;2.33;;;18.90;79.20;;;;;;5008176;28;20412;-88
2021/07/12 08:40:00;;;;;;;3.60;2.00;;;19.00;79.00;;;;;;5008001;28;20051;-85
2021/07/12 08:42:27;;;;;;;6.95;2.50;;;19.00;78.90;;;;;;5008245;28;20070;-85
2021/07/12 08:44:54;;;;;;;8.82;2.40;;;19.00;78.90;;;;;;5007924;28;20042;-87
2021/07/12 08:47:22;;;;;;;4.32;1.92;;;19.00;79.00;;;;;;5008017;28;20061;-89
2021/07/12 08:49:49;;;;;;;6.13;2.03;;;19.00;78.90;;;;;;4996493;28;20105;-86
2021/07/12 08:52:17;;;;;;;5.50;1.90;;;19.00;78.90;;;;;;5008610;28;20050;-87
2021/07/12 08:54:44;;;;;;;12.35;2.10;;;19.10;78.90;;;;;;5014842;28;20081;-85
2021/07/12 08:57:11;;;;;;;7.10;2.13;;;19.10;78.80;;;;;;4993897;28;20504;-88
2021/07/12 08:59:41;;;;;;;6.53;1.98;;;19.10;78.80;;;;;;4975523;28;20053;-88
2021/07/12 09:02:16;;;;;;;3.90;2.08;;;19.10;78.70;;;;;;4975630;28;20472;-88
2021/07/12 09:04:47;;;;;;;4.65;1.65;;;19.10;78.70;;;;;;4976914;28;20047;-86
2021/07/12 09:07:22;;;;;;;5.70;2.20;;;19.10;78.70;;;;;;4975655;28;20070;-85
2021/07/12 09:10:09;;;;;;;6.47;2.23;;;19.10;78.70;;;;;;4975580;28;20051;-88
2021/07/12 09:12:51;;;;;;;6.32;2.00;;;19.10;78.80;;;;;;4975786;28;20059;-88
2021/07/12 09:15:24;;;;;;;4.18;2.10;;;19.20;78.80;;;;;;4975612;28;20527;-86
2021/07/12 09:17:53;;;;;;;10.82;2.25;;;19.10;78.80;;;;;;4976625;28;20061;-87
2021/07/12 09:20:28;;;;;;;4.25;1.83;;;19.20;78.80;;;;;;4975121;28;20050;-85
2021/07/12 09:22:56;;;;;;;4.22;2.20;;;19.10;78.80;;;;;;4975445;28;20500;-84
2021/07/12 09:25:29;;;;;;;3.63;2.00;;;19.10;78.90;;;;;;4975381;28;20067;-86
2021/07/12 09:27:56;;;;;;;4.18;2.03;;;19.10;79.00;;;;;;4975383;28;20051;-85
2021/07/12 09:30:24;;;;;;;6.05;2.20;;;19.20;79.10;;;;;;4975461;28;20151;-86
2021/07/12 09:32:53;;;;;;;4.35;2.25;;;19.20;79.20;;;;;;4975298;28;20055;-85
2021/07/12 09:35:21;;;;;;;7.57;2.10;;;19.20;79.30;;;;;;4975327;28;20086;-85
2021/07/12 09:37:59;;;;;;;5.25;2.25;;;19.20;79.30;;;;;;4975481;28;20146;-88
2021/07/12 09:40:29;;;;;;;5.72;2.03;;;19.20;79.30;;;;;;4974859;28;20130;-86
2021/07/12 09:42:56;;;;;;;3.78;1.90;;;19.20;79.30;;;;;;4975315;28;20081;-88
2021/07/12 09:45:28;;;;;;;4.43;2.10;;;19.20;79.20;;;;;;4990715;28;20134;-86
2021/07/12 09:48:06;;;;;;;4.70;2.10;;;19.20;79.20;;;;;;4984202;28;20059;-87
2021/07/12 09:50:33;;;;;;;4.05;2.10;;;19.20;79.00;;;;;;5010514;28;20072;-87
2021/07/12 09:53:06;;;;;;;4.88;2.05;;;19.20;78.90;;;;;;5010226;28;20054;-87
2021/07/12 09:55:43;;;;;;;8.48;2.22;;;19.20;78.80;;;;;;4990450;28;20412;-88
2021/07/12 09:58:20;;;;;;;4.65;1.90;;;19.20;78.70;;;;;;4974546;28;20061;-85
2021/07/12 10:00:51;;;;;;;5.45;2.10;;;19.20;78.80;;;;;;4974587;28;20053;-87
2021/07/12 10:03:20;;;;;;;9.02;2.40;;;19.20;78.80;;;;;;4974475;28;20062;-87
2021/07/12 10:05:54;;;;;;;6.07;2.20;;;19.10;78.70;;;;;;4974738;28;20046;-86
2021/07/12 10:08:21;;;;;;;;;;;19.10;78.60;;;;;;4974877;28;20113;-86
2021/07/12 10:10:48;;;;;;;9.35;1.95;;;19.10;78.70;;;;;;4990828;28;19924;-86
2021/07/12 10:13:16;;;;;;;8.77;2.40;;;19.10;78.70;;;;;;4974463;28;20061;-87
2021/07/12 10:15:44;;;;;;;5.85;2.05;;;19.10;78.70;;;;;;4974880;28;20090;-85
2021/07/12 10:18:11;;;;;;;4.13;2.10;;;19.00;78.70;;;;;;4974209;28;20058;-88
2021/07/12 10:20:39;;;;;;;6.00;2.50;;;19.00;78.80;;;;;;4974339;28;20062;-87
2021/07/12 10:23:08;;;;;;;7.45;2.30;;;19.10;78.90;;;;;;4974119;28;20042;-87
2021/07/12 10:25:36;;;;;;;21.48;4.30;;;19.00;78.90;;;;;;4974281;28;20055;-87
2021/07/12 10:28:10;;;;;;;22.10;3.95;;;19.00;78.70;;;;;;4974435;28;20054;-86
2021/07/12 10:30:48;;;;;;;15.07;4.18;;;19.00;78.70;;;;;;4974336;28;20050;-87
2021/07/12 10:33:17;;;;;;;8.85;2.28;;;19.00;78.70;;;;;;4974379;28;20524;-87
2021/07/12 10:35:52;;;;;;;5.95;2.30;;;18.90;78.60;;;;;;4974277;28;20065;-88
2021/07/12 10:38:26;;;;;;;6.50;2.70;;;19.00;78.70;;;;;;4973758;28;20536;-88
2021/07/12 10:41:01;;;;;;;6.25;2.70;;;19.00;78.90;;;;;;4973901;28;20051;-86
2021/07/12 10:43:47;;;;;;;5.32;2.55;;;19.00;79.10;;;;;;4973871;28;20082;-86
2021/07/12 10:46:34;;;;;;;6.43;2.20;;;19.00;79.10;;;;;;4973900;28;20133;-85
2021/07/12 10:49:25;;;;;;;8.48;2.67;;;19.00;79.10;;;;;;4990705;28;20054;-88
2021/07/12 10:51:53;;;;;;;4.80;2.30;;;19.00;79.10;;;;;;4992850;28;20146;-87
2021/07/12 10:54:21;;;;;;;9.27;2.50;;;19.00;79.20;;;;;;5009307;28;20046;-87
2021/07/12 10:57:00;;;;;;;5.40;2.42;;;19.00;79.40;;;;;;4998672;28;20058;-87
2021/07/12 10:59:33;;;;;;;9.38;2.53;;;18.90;79.50;;;;;;4993951;28;20042;-87
2021/07/12 11:02:02;;;;;;;5.57;2.58;;;19.00;79.90;;;;;;5009426;28;20133;-88
2021/07/12 11:04:34;;;;;;;5.72;2.60;;;19.00;80.00;;;;;;5009388;28;20046;-87
2021/07/12 11:07:07;;;;;;;5.47;2.78;;;19.00;80.30;;;;;;5008710;28;20468;-86
2021/07/12 11:09:47;;;;;;;5.53;2.53;;;19.00;80.30;;;;;;5009091;28;20137;-87
2021/07/12 11:12:35;;;;;;;6.13;2.25;;;19.00;80.30;;;;;;5008654;28;20587;-88
2021/07/12 11:15:15;;;;;;;7.00;2.38;;;19.00;80.40;;;;;;5009381;28;20061;-86
2021/07/12 11:17:49;;;;;;;5.22;2.70;;;19.00;80.30;;;;;;5008854;28;20117;-86
2021/07/12 11:20:17;;;;;;;7.80;2.95;;;19.00;80.40;;;;;;4992553;28;20507;-86
2021/07/12 11:22:51;;;;;;;9.27;2.88;;;19.00;80.70;;;;;;5008863;28;20046;-88
2021/07/12 11:25:41;;;;;;;6.63;2.80;;;19.10;80.70;;;;;;5008957;28;20056;-87
2021/07/12 11:28:14;;;;;;;6.78;2.83;;;19.00;81.00;;;;;;5009020;28;20052;-89
2021/07/12 11:30:44;;;;;;;4.50;2.75;;;19.10;81.30;;;;;;5008816;28;20163;-86
2021/07/12 11:33:29;;;;;;;7.28;3.03;;;19.10;81.40;;;;;;5008763;28;20500;-87
2021/07/12 11:35:56;;;;;;;5.40;2.92;;;19.10;81.60;;;;;;5008741;28;20101;-86
2021/07/12 11:38:23;;;;;;;5.13;2.95;;;19.10;81.60;;;;;;5008829;28;20046;-87
2021/07/12 11:40:52;;;;;;;5.50;2.55;;;19.10;81.50;;;;;;5008538;28;20500;-87
2021/07/12 11:43:27;;;;;;;8.02;3.17;;;19.10;81.70;;;;;;5008561;28;20440;-88
2021/07/12 11:45:59;;;;;;;5.57;2.85;;;19.10;81.80;;;;;;5008867;28;20065;-87
2021/07/12 11:48:26;;;;;;;4.43;2.97;;;19.20;81.80;;;;;;4999466;28;20050;-87
2021/07/12 11:50:57;;;;;;;8.18;2.80;;;19.20;81.90;;;;;;4992683;28;20137;-88
2021/07/12 11:53:24;;;;;;;6.68;2.97;;;19.20;81.90;;;;;;4992539;28;20053;-88
2021/07/12 11:55:51;;;;;;;7.28;2.70;;;19.20;81.80;;;;;;4988853;28;20464;-87
2021/07/12 11:58:22;;;;;;;5.30;2.80;;;19.20;81.90;;;;;;4972903;28;20409;-87
2021/07/12 12:00:49;;;;;;;9.20;3.28;;;19.20;82.30;;;;;;4972709;28;20053;-87
2021/07/12 12:03:17;;;;;;;6.43;2.80;;;19.20;82.20;;;;;;4973162;28;20061;-87
2021/07/12 12:05:45;;;;;;;5.43;2.65;;;19.30;82.30;;;;;;4972906;28;20567;-89
2021/07/12 12:08:17;;;;;;;4.07;2.33;;;19.30;82.30;;;;;;4973109;28;20129;-91
2021/07/12 12:10:48;;;;;;;;;;;19.30;82.20;;;;;;4973325;28;20141;-87
2021/07/12 12:13:20;;;;;;;6.80;2.40;;;19.30;82.10;;;;;;4988853;28;19926;-88
2021/07/12 12:15:50;;;;;;;5.82;2.72;;;19.30;82.00;;;;;;4973069;28;20413;-89
2021/07/12 12:18:25;;;;;;;4.55;2.30;;;19.30;82.10;;;;;;4972706;28;20046;-86
2021/07/12 12:20:58;;;;;;;3.58;2.15;;;19.30;82.20;;;;;;4972379;28;20515;-87
2021/07/12 12:23:31;;;;;;;4.45;2.15;;;19.30;82.00;;;;;;4976394;28;20149;-88
2021/07/12 12:26:13;;;;;;;6.38;2.83;;;19.30;82.00;;;;;;4976496;28;20043;-86
2021/07/12 12:28:51;;;;;;;4.63;2.72;;;19.30;82.00;;;;;;4976358;28;20054;-88
2021/07/12 12:31:27;;;;;;;5.53;3.08;;;19.30;81.80;;;;;;4976571;28;20057;-88
2021/07/12 12:34:07;;;;;;;6.55;3.45;;;19.30;81.80;;;;;;4976216;28;20567;-87
2021/07/12 12:36:38;;;;;;;8.95;3.38;;;19.30;81.90;;;;;;4976489;28;20412;-87
2021/07/12 12:39:14;;;;;;;7.25;3.90;;;19.30;82.00;;;;;;4976558;28;20061;-86
2021/07/12 12:41:47;;;;;;;6.85;3.80;;;19.30;82.20;;;;;;4976203;28;20043;-87
2021/07/12 12:44:18;;;;;;;6.13;4.05;;;19.30;82.30;;;;;;4975869;28;20066;-86
2021/07/12 12:46:53;;;;;;;6.60;3.78;;;19.30;82.40;;;;;;4975823;28;20070;-88
2021/07/12 12:49:30;;;;;;;6.57;3.40;;;19.30;82.50;;;;;;4980767;28;20054;-88
2021/07/12 12:52:07;;;;;;;8.48;4.13;;;19.30;82.40;;;;;;4995352;28;20050;-87
2021/07/12 12:54:46;;;;;;;6.32;3.88;;;19.30;82.40;;;;;;5010959;28;20053;-87
2021/07/12 12:57:26;;;;;;;6.15;3.35;;;19.30;82.20;;;;;;4995354;28;20054;-86
2021/07/12 13:00:09;;;;;;;5.40;2.97;;;19.30;82.20;;;;;;5011742;28;20061;-88
2021/07/12 13:02:38;;;;;;;6.53;3.23;;;19.30;82.10;;;;;;5011637;28;20082;-87